Time;durP1;ratioP1;P1;durP2;ratioP2;P2;SDS_P1;SDS_P2;PMS_P1;PMS_P2;Temp;Humidity;BMP_temperature;BMP_pressure;BME280_temperature;BME280_humidity;BME280_pressure;Samples;Min_cycle;Max_cycle;Signal;HPM_P1;HPM_P2
2023/03/30 00:01:29;;;;;;;13.48;9.57;;;10.90;99.90;;;;;;5023467;28;20190;-72
2023/03/30 00:03:55;;;;;;;14.27;9.23;;;11.00;99.90;;;;;;5018166;28;20056;-72
2023/03/30 00:06:21;;;;;;;11.10;8.73;;;11.00;99.90;;;;;;5031722;28;20641;-72
2023/03/30 00:08:55;;;;;;;12.38;8.93;;;11.00;99.90;;;;;;5024493;28;20504;-72
2023/03/30 00:11:22;;;;;;;11.48;7.70;;;11.10;99.90;;;;;;5027023;28;20049;-72
2023/03/30 00:13:49;;;;;;;10.80;8.15;;;11.10;99.90;;;;;;5023345;28;20047;-72
2023/03/30 00:16:16;;;;;;;12.80;7.15;;;11.20;99.90;;;;;;5021119;28;20460;-72
2023/03/30 00:18:43;;;;;;;8.95;6.97;;;11.20;99.90;;;;;;5021177;28;20045;-72
2023/03/30 00:21:10;;;;;;;11.20;6.22;;;11.30;99.90;;;;;;5022876;28;20094;-72
2023/03/30 00:23:37;;;;;;;9.95;6.60;;;11.30;99.90;;;;;;5018911;28;20037;-72
2023/03/30 00:26:03;;;;;;;8.82;6.10;;;11.30;99.90;;;;;;5004242;28;20036;-72
2023/03/30 00:28:29;;;;;;;7.82;6.25;;;11.30;99.90;;;;;;5022672;28;20477;-71
2023/03/30 00:30:56;;;;;;;7.72;6.00;;;11.40;99.90;;;;;;5023284;28;20091;-72
2023/03/30 00:33:22;;;;;;;9.55;6.40;;;11.30;99.90;;;;;;5024500;28;20084;-72
2023/03/30 00:35:52;;;;;;;9.18;6.20;;;11.30;99.90;;;;;;5023221;28;20037;-72
2023/03/30 00:38:19;;;;;;;8.93;5.88;;;11.30;99.90;;;;;;5023877;28;20129;-71
2023/03/30 00:40:51;;;;;;;8.60;5.78;;;11.30;99.90;;;;;;5021432;28;20037;-71
2023/03/30 00:43:18;;;;;;;12.68;6.45;;;11.20;99.90;;;;;;5029704;28;20043;-71
2023/03/30 00:45:43;;;;;;;12.52;6.55;;;11.20;99.90;;;;;;5017478;28;20132;-71
2023/03/30 00:48:20;;;;;;;10.95;6.10;;;11.20;99.90;;;;;;5027554;28;20145;-71
2023/03/30 00:50:52;;;;;;;9.15;5.97;;;11.20;99.90;;;;;;5021022;28;20041;-71
2023/03/30 00:53:25;;;;;;;9.45;6.28;;;11.30;99.90;;;;;;5018774;28;20748;-72
2023/03/30 00:55:52;;;;;;;9.07;5.40;;;11.30;99.90;;;;;;5016983;28;20049;-72
2023/03/30 00:58:20;;;;;;;9.05;5.93;;;11.30;99.90;;;;;;5021794;28;20045;-72
2023/03/30 01:00:46;;;;;;;7.65;5.45;;;11.30;99.90;;;;;;5019849;28;20579;-72
2023/03/30 01:03:23;;;;;;;8.32;5.47;;;11.30;99.90;;;;;;5022238;28;20082;-71
2023/03/30 01:05:50;;;;;;;10.15;5.63;;;11.40;99.90;;;;;;5023347;28;20159;-71
2023/03/30 01:08:17;;;;;;;9.48;5.70;;;11.40;99.90;;;;;;5022318;28;20122;-71
2023/03/30 01:10:46;;;;;;;10.13;5.30;;;11.40;99.90;;;;;;5022192;28;20055;-71
2023/03/30 01:13:13;;;;;;;8.55;5.65;;;11.50;99.90;;;;;;5023689;28;20049;-71
2023/03/30 01:16:00;;;;;;;8.95;5.45;;;11.40;99.90;;;;;;5019289;28;20037;-71
2023/03/30 01:18:37;;;;;;;8.88;5.07;;;11.50;99.90;;;;;;5011832;28;20038;-71
2023/03/30 01:21:12;;;;;;;8.90;4.97;;;11.50;99.90;;;;;;5022594;28;20037;-71
2023/03/30 01:24:08;;;;;;;;;;;11.40;99.90;;;;;;5027982;28;20138;-72
2023/03/30 01:26:49;;;;;;;10.50;5.03;;;11.40;99.90;;;;;;5026807;28;20360;-72
2023/03/30 01:29:39;;;;;;;7.38;4.88;;;11.50;99.90;;;;;;5030614;28;20033;-72
2023/03/30 01:32:56;;;;;;;7.85;5.78;;;11.50;99.90;;;;;;5024542;28;20103;-72
2023/03/30 01:35:34;;;;;;;7.88;5.13;;;11.50;99.90;;;;;;5026016;28;20069;-73
2023/03/30 01:38:25;;;;;;;8.45;4.75;;;11.50;99.90;;;;;;5025550;28;20103;-73
2023/03/30 01:41:02;;;;;;;9.02;4.88;;;11.60;99.90;;;;;;5027866;28;20072;-73
2023/03/30 01:44:00;;;;;;;6.30;4.32;;;11.60;99.90;;;;;;5029757;28;20040;-73
2023/03/30 01:46:39;;;;;;;8.15;5.07;;;11.60;99.90;;;;;;5022596;28;20056;-73
2023/03/30 01:49:22;;;;;;;7.93;4.63;;;11.60;99.90;;;;;;5033318;28;20041;-73
2023/03/30 01:52:08;;;;;;;10.02;4.95;;;11.60;99.90;;;;;;5022539;28;20589;-72
2023/03/30 01:54:42;;;;;;;8.48;5.20;;;11.60;99.90;;;;;;5027403;28;20504;-73
2023/03/30 01:57:22;;;;;;;7.88;4.65;;;11.60;99.90;;;;;;5026436;28;20461;-73
2023/03/30 02:00:00;;;;;;;9.90;4.63;;;11.60;99.90;;;;;;5020283;28;20171;-72
2023/03/30 02:02:29;;;;;;;8.13;4.80;;;11.60;99.90;;;;;;5025806;28;20040;-73
2023/03/30 02:04:58;;;;;;;8.55;5.50;;;11.60;99.90;;;;;;5026205;28;20049;-73
2023/03/30 02:07:29;;;;;;;7.65;4.50;;;11.60;99.90;;;;;;5041522;28;20049;-72
2023/03/30 02:10:00;;;;;;;8.77;4.65;;;11.60;99.90;;;;;;5024062;28;20052;-72
2023/03/30 02:12:29;;;;;;;9.35;4.70;;;11.60;99.90;;;;;;5025210;28;20041;-72
2023/03/30 02:14:59;;;;;;;8.55;4.22;;;11.60;99.90;;;;;;5041145;28;20075;-72
2023/03/30 02:17:28;;;;;;;7.88;4.38;;;11.60;99.90;;;;;;5043665;28;20045;-72
2023/03/30 02:19:56;;;;;;;8.20;4.45;;;11.60;99.90;;;;;;5026772;28;20125;-72
2023/03/30 02:22:25;;;;;;;6.72;4.57;;;11.60;99.90;;;;;;5023749;28;20476;-72
2023/03/30 02:24:53;;;;;;;7.63;4.53;;;11.60;99.90;;;;;;5026618;28;20476;-72
2023/03/30 02:27:21;;;;;;;9.05;4.90;;;11.60;99.90;;;;;;5023417;28;20058;-71
2023/03/30 02:29:47;;;;;;;7.20;4.72;;;11.60;99.90;;;;;;5028913;28;20037;-72
2023/03/30 02:32:30;;;;;;;6.22;4.13;;;11.60;99.90;;;;;;5024470;28;20068;-72
2023/03/30 02:35:07;;;;;;;7.70;4.07;;;11.60;99.90;;;;;;5023127;28;20112;-71
2023/03/30 02:37:42;;;;;;;9.15;4.57;;;11.60;99.90;;;;;;5023976;28;20059;-72
2023/03/30 02:40:14;;;;;;;;;;;11.60;99.90;;;;;;5025242;28;20037;-71
2023/03/30 02:42:45;;;;;;;9.50;4.35;;;11.60;99.90;;;;;;5058609;28;19917;-71
2023/03/30 02:45:32;;;;;;;9.80;4.15;;;11.60;99.90;;;;;;5024645;28;20253;-71
2023/03/30 02:48:22;;;;;;;6.75;3.67;;;11.60;99.90;;;;;;5039564;28;20071;-71
2023/03/30 02:51:00;;;;;;;7.22;3.78;;;11.50;99.90;;;;;;5028180;28;20075;-71
2023/03/30 02:53:54;;;;;;;6.60;3.13;;;11.50;99.90;;;;;;5030702;28;20059;-71
2023/03/30 02:56:27;;;;;;;7.20;3.53;;;11.50;99.90;;;;;;5023248;28;20116;-71
2023/03/30 02:59:04;;;;;;;6.13;3.92;;;11.50;99.90;;;;;;5029551;28;20044;-71
2023/03/30 03:01:51;;;;;;;5.55;3.45;;;11.50;99.90;;;;;;5037401;28;20037;-71
2023/03/30 03:04:20;;;;;;;7.47;3.20;;;11.40;99.90;;;;;;5021257;28;20124;-71
2023/03/30 03:06:51;;;;;;;5.22;3.58;;;11.40;99.90;;;;;;5019812;28;20049;-71
2023/03/30 03:09:18;;;;;;;7.53;3.17;;;11.50;99.90;;;;;;5024373;28;20037;-71
2023/03/30 03:11:44;;;;;;;4.75;2.67;;;11.50;99.90;;;;;;5027878;28;20045;-71
2023/03/30 03:14:10;;;;;;;6.72;2.95;;;11.50;99.90;;;;;;5027856;28;20049;-71
2023/03/30 03:16:36;;;;;;;6.38;3.28;;;11.50;99.90;;;;;;5015139;28;20141;-71
2023/03/30 03:19:03;;;;;;;6.85;3.00;;;11.50;99.90;;;;;;5026528;28;20099;-71
2023/03/30 03:21:29;;;;;;;7.53;2.95;;;11.50;99.90;;;;;;5025035;28;20051;-71
2023/03/30 03:23:55;;;;;;;8.35;3.05;;;11.60;99.90;;;;;;5023638;28;20127;-71
2023/03/30 03:26:21;;;;;;;7.50;3.55;;;11.60;99.90;;;;;;5012085;28;20068;-71
2023/03/30 03:28:47;;;;;;;6.70;2.85;;;11.60;99.90;;;;;;5012359;28;20040;-71
2023/03/30 03:31:13;;;;;;;10.43;2.90;;;11.60;99.90;;;;;;5020579;28;20048;-72
2023/03/30 03:33:38;;;;;;;5.15;2.70;;;11.70;99.90;;;;;;5030804;28;20519;-71
2023/03/30 03:36:05;;;;;;;7.70;3.17;;;11.80;99.90;;;;;;5024275;28;20073;-72
2023/03/30 03:38:31;;;;;;;7.40;2.92;;;11.80;99.90;;;;;;5025485;28;20034;-71
2023/03/30 03:40:58;;;;;;;5.55;2.70;;;11.90;99.90;;;;;;5019748;28;20536;-71
2023/03/30 03:43:24;;;;;;;6.22;2.78;;;11.90;99.90;;;;;;5018332;28;20493;-71
2023/03/30 03:45:51;;;;;;;7.40;3.00;;;12.00;99.90;;;;;;5025734;28;20049;-71
2023/03/30 03:48:18;;;;;;;4.47;2.42;;;12.00;99.90;;;;;;5023336;28;20048;-71
2023/03/30 03:50:48;;;;;;;5.57;2.42;;;12.10;99.90;;;;;;5024191;28;20469;-71
2023/03/30 03:53:13;;;;;;;4.47;2.30;;;12.10;99.90;;;;;;5024721;28;20033;-71
2023/03/30 03:55:40;;;;;;;6.88;2.90;;;12.10;99.90;;;;;;5004275;28;20044;-71
2023/03/30 03:58:06;;;;;;;4.93;2.20;;;12.20;99.90;;;;;;5024961;28;20116;-71
2023/03/30 04:00:33;;;;;;;6.30;2.38;;;12.10;99.90;;;;;;5025308;28;20048;-71
2023/03/30 04:02:59;;;;;;;4.20;2.10;;;12.20;99.90;;;;;;5024997;28;20123;-71
2023/03/30 04:05:25;;;;;;;5.68;2.28;;;12.30;99.90;;;;;;5028229;28;20722;-71
2023/03/30 04:07:52;;;;;;;5.38;2.17;;;12.30;99.90;;;;;;5021228;28;20106;-71
2023/03/30 04:10:20;;;;;;;6.32;2.10;;;12.40;99.90;;;;;;5022598;28;20037;-71
2023/03/30 04:12:45;;;;;;;6.07;2.30;;;12.40;99.90;;;;;;5019730;28;20037;-71
2023/03/30 04:15:11;;;;;;;4.88;1.88;;;12.50;99.90;;;;;;5029569;28;20131;-71
2023/03/30 04:17:37;;;;;;;6.47;2.55;;;12.50;99.90;;;;;;5024191;28;20041;-71
2023/03/30 04:20:04;;;;;;;7.20;2.10;;;12.50;99.90;;;;;;5024228;28;20046;-71
2023/03/30 04:22:40;;;;;;;8.85;2.47;;;12.50;99.90;;;;;;5016396;28;20048;-70
2023/03/30 04:25:08;;;;;;;6.38;2.38;;;12.50;99.90;;;;;;5022278;28;20471;-71
2023/03/30 04:27:36;;;;;;;6.35;2.58;;;12.50;99.90;;;;;;5021894;28;20041;-70
2023/03/30 04:30:04;;;;;;;6.35;2.80;;;12.50;99.90;;;;;;5022120;28;20057;-70
2023/03/30 04:32:33;;;;;;;7.90;2.30;;;12.50;99.90;;;;;;5020853;28;20037;-71
2023/03/30 04:35:00;;;;;;;7.90;2.25;;;12.50;99.90;;;;;;5024075;28;20496;-71
2023/03/30 04:37:29;;;;;;;7.43;2.80;;;12.50;99.90;;;;;;5024736;28;20146;-71
2023/03/30 04:39:58;;;;;;;9.77;3.42;;;12.50;99.90;;;;;;5002750;28;20136;-71
2023/03/30 04:42:32;;;;;;;6.47;2.45;;;12.40;99.90;;;;;;5019394;28;20043;-71
2023/03/30 04:44:59;;;;;;;8.10;2.80;;;12.30;99.90;;;;;;5024070;28;20045;-70
2023/03/30 04:47:26;;;;;;;8.35;2.65;;;12.20;99.90;;;;;;5021244;28;20068;-71
2023/03/30 04:49:52;;;;;;;7.68;3.08;;;12.20;99.90;;;;;;5024677;28;20095;-71
2023/03/30 04:52:18;;;;;;;6.35;3.08;;;12.10;99.90;;;;;;5019707;28;20045;-71
2023/03/30 04:54:44;;;;;;;4.70;2.67;;;12.10;99.90;;;;;;5022591;28;20094;-71
2023/03/30 04:57:12;;;;;;;9.50;3.42;;;12.00;99.90;;;;;;5021530;28;20028;-71
2023/03/30 04:59:39;;;;;;;7.53;3.22;;;12.00;99.90;;;;;;5028880;28;20037;-71
2023/03/30 05:02:04;;;;;;;8.43;2.85;;;11.90;99.90;;;;;;5012378;28;20041;-72
2023/03/30 05:04:30;;;;;;;7.20;2.63;;;11.90;99.90;;;;;;5025420;28;20382;-71
2023/03/30 05:06:56;;;;;;;11.50;3.70;;;11.90;99.90;;;;;;5024957;28;20075;-72
2023/03/30 05:09:22;;;;;;;7.28;3.15;;;11.90;99.90;;;;;;5026036;28;20037;-71
2023/03/30 05:11:48;;;;;;;10.88;3.08;;;12.00;99.90;;;;;;5028340;28;20743;-71
2023/03/30 05:14:14;;;;;;;6.25;2.80;;;11.80;99.90;;;;;;5045481;28;20045;-70
2023/03/30 05:16:40;;;;;;;8.02;3.33;;;11.80;99.90;;;;;;5026809;28;20041;-70
2023/03/30 05:19:06;;;;;;;6.97;2.92;;;11.80;99.90;;;;;;5030039;28;20047;-70
2023/03/30 05:21:32;;;;;;;6.93;2.85;;;11.80;99.90;;;;;;5028714;28;20045;-70
2023/03/30 05:23:57;;;;;;;8.10;2.60;;;11.80;99.90;;;;;;5027171;28;20037;-70
2023/03/30 05:26:25;;;;;;;7.63;2.83;;;11.80;99.90;;;;;;5030841;28;20045;-71
2023/03/30 05:28:51;;;;;;;4.28;2.60;;;11.90;99.90;;;;;;5025487;28;20616;-71
2023/03/30 05:31:17;;;;;;;7.03;2.90;;;11.90;99.90;;;;;;5024819;28;20097;-70
2023/03/30 05:33:43;;;;;;;9.38;3.30;;;11.90;99.90;;;;;;5025035;28;20041;-70
2023/03/30 05:36:09;;;;;;;7.50;2.75;;;11.90;99.90;;;;;;5026387;28;20131;-70
2023/03/30 05:38:35;;;;;;;8.23;2.80;;;11.90;99.90;;;;;;5028706;28;20033;-70
2023/03/30 05:41:01;;;;;;;5.85;2.55;;;11.90;99.90;;;;;;5059125;28;20098;-70
2023/03/30 05:43:27;;;;;;;6.53;2.15;;;11.90;99.90;;;;;;5027860;28;20076;-70
2023/03/30 05:45:53;;;;;;;6.05;2.20;;;11.90;99.90;;;;;;5029343;28;20041;-70
2023/03/30 05:48:18;;;;;;;6.45;2.25;;;11.90;99.90;;;;;;5026327;28;20041;-75
2023/03/30 05:50:46;;;;;;;7.80;2.30;;;11.90;99.90;;;;;;5023370;28;20073;-70
2023/03/30 05:53:12;;;;;;;6.90;2.38;;;12.00;99.90;;;;;;5026101;28;20136;-70
2023/03/30 05:55:38;;;;;;;7.68;2.42;;;12.00;99.90;;;;;;5021316;28;20218;-70
2023/03/30 05:58:04;;;;;;;6.45;1.90;;;12.00;99.90;;;;;;5025333;28;20041;-71
2023/03/30 06:00:32;;;;;;;7.88;2.33;;;12.10;99.90;;;;;;5031136;28;20071;-72
2023/03/30 06:02:58;;;;;;;5.35;1.92;;;12.10;99.90;;;;;;5029968;28;20076;-71
2023/03/30 06:05:24;;;;;;;7.63;2.30;;;12.10;99.90;;;;;;5024465;28;20488;-71
2023/03/30 06:07:52;;;;;;;5.82;2.30;;;12.10;99.90;;;;;;5022729;28;20040;-71
2023/03/30 06:10:18;;;;;;;7.38;2.53;;;12.10;99.90;;;;;;5008364;28;20573;-72
2023/03/30 06:12:43;;;;;;;7.63;2.50;;;12.10;99.90;;;;;;5010031;28;20136;-71
2023/03/30 06:15:09;;;;;;;8.98;2.22;;;12.10;99.90;;;;;;5024744;28;20128;-75
2023/03/30 06:17:36;;;;;;;6.38;2.28;;;12.20;99.90;;;;;;5009269;28;20045;-75
2023/03/30 06:20:10;;;;;;;8.30;3.10;;;12.10;99.90;;;;;;5026921;28;20056;-75
2023/03/30 06:22:36;;;;;;;9.52;2.60;;;12.10;99.90;;;;;;5007191;28;20051;-75
2023/03/30 06:25:01;;;;;;;8.18;2.90;;;12.10;99.90;;;;;;5011229;28;20483;-75
2023/03/30 06:27:30;;;;;;;7.18;2.53;;;12.00;99.90;;;;;;5014852;28;20037;-74
2023/03/30 06:29:56;;;;;;;5.95;2.50;;;12.00;99.90;;;;;;5028887;28;20572;-75
2023/03/30 06:32:21;;;;;;;6.80;2.45;;;12.10;99.90;;;;;;5022437;28;20091;-75
2023/03/30 06:34:47;;;;;;;7.38;2.75;;;12.00;99.90;;;;;;5024561;28;20041;-74
2023/03/30 06:37:14;;;;;;;8.57;3.03;;;12.10;99.90;;;;;;5004363;28;20049;-74
2023/03/30 06:39:40;;;;;;;7.10;2.85;;;12.10;99.90;;;;;;5026668;28;20437;-74
2023/03/30 06:42:06;;;;;;;9.57;3.00;;;12.10;99.90;;;;;;5009572;28;20132;-75
2023/03/30 06:44:33;;;;;;;10.55;3.20;;;12.00;99.90;;;;;;5025830;28;20036;-75
2023/03/30 06:46:59;;;;;;;8.88;2.70;;;12.10;99.90;;;;;;5020222;28;20033;-74
2023/03/30 06:49:25;;;;;;;9.70;2.75;;;12.10;99.90;;;;;;5028398;28;20523;-74
2023/03/30 06:51:51;;;;;;;8.05;2.33;;;12.20;99.90;;;;;;5025872;28;20461;-75
2023/03/30 06:54:19;;;;;;;9.98;2.58;;;12.20;99.90;;;;;;5021086;28;20102;-74
2023/03/30 06:56:48;;;;;;;10.05;2.58;;;12.20;99.90;;;;;;5022110;28;20400;-73
2023/03/30 06:59:14;;;;;;;8.32;1.88;;;12.30;99.90;;;;;;5030200;28;20049;-73
2023/03/30 07:01:41;;;;;;;8.35;2.15;;;12.40;99.90;;;;;;5026108;28;20040;-73
2023/03/30 07:04:07;;;;;;;13.70;2.38;;;12.50;99.90;;;;;;5026243;28;20049;-72
2023/03/30 07:06:33;;;;;;;14.15;2.58;;;12.50;99.90;;;;;;5024392;28;20048;-73
2023/03/30 07:09:00;;;;;;;13.38;2.88;;;12.50;99.90;;;;;;5027439;28;20401;-72
2023/03/30 07:11:26;;;;;;;9.90;2.30;;;12.50;99.90;;;;;;5026254;28;20437;-72
2023/03/30 07:13:55;;;;;;;9.95;2.13;;;12.50;99.90;;;;;;5026848;28;20048;-72
2023/03/30 07:16:21;;;;;;;10.50;2.25;;;12.50;99.90;;;;;;5032143;28;20052;-72
2023/03/30 07:18:47;;;;;;;14.57;2.30;;;12.60;99.90;;;;;;5008008;28;20045;-72
2023/03/30 07:21:12;;;;;;;10.55;2.28;;;12.60;99.90;;;;;;5029789;28;20510;-71
2023/03/30 07:23:39;;;;;;;14.75;2.45;;;12.60;99.90;;;;;;5012447;28;20507;-71
2023/03/30 07:26:05;;;;;;;10.85;2.33;;;12.70;99.90;;;;;;5026432;28;20099;-71
2023/03/30 07:28:30;;;;;;;11.30;2.25;;;12.70;99.90;;;;;;5022936;28;20041;-71
2023/03/30 07:31:04;;;;;;;13.88;2.58;;;12.70;99.90;;;;;;5020575;28;20354;-71
2023/03/30 07:33:30;;;;;;;12.20;2.60;;;12.70;99.90;;;;;;5030183;28;20526;-70
2023/03/30 07:35:56;;;;;;;12.38;3.10;;;12.70;99.90;;;;;;5025134;28;20033;-71
2023/03/30 07:38:23;;;;;;;21.38;3.67;;;12.80;99.90;;;;;;5023186;28;20538;-71
2023/03/30 07:40:49;;;;;;;12.60;2.80;;;12.70;99.90;;;;;;5005642;28;20041;-70
2023/03/30 07:43:15;;;;;;;19.52;3.50;;;12.70;99.90;;;;;;5017471;28;20052;-71
2023/03/30 07:45:40;;;;;;;18.17;2.95;;;12.70;99.90;;;;;;5025796;28;20037;-71
2023/03/30 07:48:06;;;;;;;14.40;3.17;;;12.70;99.90;;;;;;5021022;28;20046;-70
2023/03/30 07:50:32;;;;;;;14.70;2.95;;;12.70;99.90;;;;;;5022509;28;20417;-70
2023/03/30 07:52:58;;;;;;;13.00;2.83;;;12.70;99.90;;;;;;5025143;28;20546;-70
2023/03/30 07:55:24;;;;;;;17.10;2.95;;;12.70;99.90;;;;;;5026457;28;20037;-70
2023/03/30 07:57:50;;;;;;;14.77;2.95;;;12.70;99.90;;;;;;5012802;28;20117;-70
2023/03/30 08:00:16;;;;;;;12.50;2.95;;;12.60;99.90;;;;;;5022962;28;20041;-70
2023/03/30 08:02:43;;;;;;;14.65;2.47;;;12.70;99.90;;;;;;5026483;28;20041;-70
2023/03/30 08:05:09;;;;;;;13.63;2.75;;;12.70;99.90;;;;;;5020846;28;20568;-71
2023/03/30 08:07:36;;;;;;;18.08;3.70;;;12.70;99.90;;;;;;5027366;28;20053;-70
2023/03/30 08:10:02;;;;;;;16.33;3.40;;;12.70;99.90;;;;;;5019058;28;20449;-70
2023/03/30 08:12:27;;;;;;;17.75;3.53;;;12.70;99.90;;;;;;5024183;28;20040;-70
2023/03/30 08:14:54;;;;;;;19.50;3.22;;;12.70;99.90;;;;;;5025688;28;20043;-69
2023/03/30 08:17:20;;;;;;;23.42;4.22;;;12.70;99.90;;;;;;5024525;28;20335;-70
2023/03/30 08:19:46;;;;;;;14.43;3.22;;;12.70;99.90;;;;;;5022386;28;20478;-70
2023/03/30 08:22:12;;;;;;;19.70;3.05;;;12.70;99.90;;;;;;5025517;28;20120;-70
2023/03/30 08:24:37;;;;;;;15.55;3.22;;;12.70;99.90;;;;;;5021691;28;20050;-70
2023/03/30 08:27:03;;;;;;;19.88;3.42;;;12.70;99.90;;;;;;5027822;28;20337;-70
2023/03/30 08:29:30;;;;;;;16.90;3.40;;;12.60;99.90;;;;;;5022422;28;20568;-70
2023/03/30 08:31:56;;;;;;;18.80;3.45;;;12.60;99.90;;;;;;5024604;28;20036;-70
2023/03/30 08:34:22;;;;;;;13.85;3.45;;;12.60;99.90;;;;;;5029490;28;20045;-70
2023/03/30 08:36:48;;;;;;;19.40;3.55;;;12.50;99.90;;;;;;5026848;28;20048;-70
2023/03/30 08:39:14;;;;;;;25.48;4.05;;;12.50;99.90;;;;;;5008879;28;20069;-70
2023/03/30 08:41:55;;;;;;;19.15;3.90;;;12.50;99.90;;;;;;5023749;28;20057;-70
2023/03/30 08:44:38;;;;;;;17.67;3.58;;;12.50;99.90;;;;;;5027864;28;20036;-70
2023/03/30 08:47:19;;;;;;;19.55;4.10;;;12.50;99.90;;;;;;5025710;28;20413;-70
2023/03/30 08:50:01;;;;;;;17.05;3.58;;;12.40;99.90;;;;;;5016627;28;20039;-70
2023/03/30 08:52:27;;;;;;;24.88;3.90;;;12.40;99.90;;;;;;5026293;28;20103;-70
2023/03/30 08:54:53;;;;;;;19.15;3.80;;;12.50;99.90;;;;;;5028280;28;20073;-71
2023/03/30 08:57:46;;;;;;;19.35;3.88;;;12.60;99.90;;;;;;5028515;28;20119;-71
2023/03/30 09:00:23;;;;;;;20.27;4.22;;;12.50;99.90;;;;;;5024195;28;20421;-70
2023/03/30 09:02:52;;;;;;;25.38;4.68;;;12.60;99.90;;;;;;5060982;28;20106;-71
2023/03/30 09:05:32;;;;;;;21.20;3.78;;;12.50;99.90;;;;;;5060341;28;20437;-71
2023/03/30 09:08:04;;;;;;;24.10;4.07;;;12.50;99.90;;;;;;5021940;28;20408;-71
2023/03/30 09:10:36;;;;;;;19.35;4.50;;;12.60;99.90;;;;;;5034545;28;20037;-71
2023/03/30 09:13:05;;;;;;;20.77;3.10;;;12.80;99.90;;;;;;5024996;28;20233;-71
2023/03/30 09:15:44;;;;;;;22.65;3.78;;;13.20;99.90;;;;;;5029877;28;20134;-71
2023/03/30 09:18:26;;;;;;;16.58;3.90;;;13.60;99.90;;;;;;5027407;28;20381;-71
2023/03/30 09:20:55;;;;;;;20.60;4.75;;;14.10;99.90;;;;;;5025520;28;20041;-71
2023/03/30 09:23:21;;;;;;;19.30;4.25;;;14.20;99.90;;;;;;5019852;28;20089;-69
2023/03/30 09:26:10;;;;;;;17.05;3.95;;;14.10;99.90;;;;;;5054052;28;20049;-70
2023/03/30 09:28:56;;;;;;;15.57;3.60;;;14.00;99.90;;;;;;5016851;28;20039;-71
2023/03/30 09:31:33;;;;;;;17.40;3.13;;;13.90;99.90;;;;;;5026349;28;20102;-71
2023/03/30 09:34:19;;;;;;;14.63;3.00;;;13.80;99.90;;;;;;5028055;28;20044;-71
2023/03/30 09:37:08;;;;;;;14.82;3.40;;;13.90;99.90;;;;;;5023179;28;20045;-71
2023/03/30 09:39:35;;;;;;;12.52;2.72;;;14.20;99.90;;;;;;5027043;28;20178;-71
2023/03/30 09:42:03;;;;;;;15.65;3.05;;;14.40;99.90;;;;;;5030483;28;20041;-71
2023/03/30 09:44:35;;;;;;;13.05;2.60;;;14.70;99.90;;;;;;5041407;28;20049;-72
2023/03/30 09:47:11;;;;;;;17.02;2.80;;;14.70;99.90;;;;;;5025193;28;20635;-71
2023/03/30 09:49:39;;;;;;;13.82;3.10;;;14.50;99.90;;;;;;5028556;28;20476;-71
2023/03/30 09:52:07;;;;;;;12.75;2.90;;;14.40;99.90;;;;;;5027933;28;20036;-71
2023/03/30 09:54:36;;;;;;;14.60;2.45;;;14.30;99.90;;;;;;5037871;28;20053;-71
2023/03/30 09:57:03;;;;;;;15.00;2.85;;;14.20;99.90;;;;;;5023005;28;20046;-71
2023/03/30 09:59:35;;;;;;;14.40;2.58;;;14.10;99.90;;;;;;5025002;28;20037;-71
2023/03/30 10:02:16;;;;;;;13.95;2.75;;;14.00;99.90;;;;;;5058186;28;20044;-71
2023/03/30 10:04:51;;;;;;;14.32;2.40;;;13.90;99.90;;;;;;5022955;28;20045;-71
2023/03/30 10:07:32;;;;;;;11.57;2.25;;;13.90;99.90;;;;;;5029004;28;20046;-71
2023/03/30 10:10:12;;;;;;;14.75;2.70;;;13.90;99.90;;;;;;5042988;28;20041;-70
2023/03/30 10:12:38;;;;;;;15.02;2.25;;;14.00;99.90;;;;;;5041812;28;20081;-71
2023/03/30 10:15:05;;;;;;;14.27;2.38;;;14.10;99.90;;;;;;5019038;28;20489;-70
2023/03/30 10:17:31;;;;;;;15.25;2.47;;;14.20;99.90;;;;;;5027235;28;20041;-70
2023/03/30 10:20:22;;;;;;;15.15;2.95;;;14.30;99.90;;;;;;5008457;28;20441;-70
2023/03/30 10:22:54;;;;;;;13.40;2.33;;;14.40;99.90;;;;;;5014864;28;20055;-70
2023/03/30 10:25:27;;;;;;;14.15;2.90;;;14.40;99.90;;;;;;5021715;28;20037;-70
2023/03/30 10:27:56;;;;;;;12.02;2.13;;;14.40;99.90;;;;;;5024349;28;20404;-70
2023/03/30 10:30:25;;;;;;;12.45;1.83;;;14.40;99.90;;;;;;5025960;28;20045;-70
2023/03/30 10:32:53;;;;;;;14.32;2.78;;;14.40;99.90;;;;;;5058495;28;20520;-70
2023/03/30 10:35:23;;;;;;;12.98;2.47;;;14.50;99.90;;;;;;5058299;28;20078;-70
2023/03/30 10:37:52;;;;;;;17.08;2.47;;;14.60;99.90;;;;;;5042790;28;20128;-69
2023/03/30 10:40:25;;;;;;;14.63;2.65;;;14.70;99.90;;;;;;5024887;28;20050;-70
2023/03/30 10:42:57;;;;;;;12.73;2.25;;;14.90;99.90;;;;;;5044019;28;20370;-70
2023/03/30 10:45:31;;;;;;;10.52;2.72;;;15.00;99.90;;;;;;5022885;28;20068;-70
2023/03/30 10:48:28;;;;;;;15.00;3.33;;;15.00;99.90;;;;;;5024796;28;20310;-70
2023/03/30 10:51:25;;;;;;;12.15;3.08;;;15.20;99.90;;;;;;5022228;28;20056;-70
2023/03/30 10:54:11;;;;;;;11.32;2.83;;;15.40;99.90;;;;;;5020765;28;20064;-71
2023/03/30 10:56:56;;;;;;;16.90;2.75;;;15.40;99.90;;;;;;5026306;28;20045;-70
2023/03/30 10:59:40;;;;;;;12.48;3.00;;;15.40;99.90;;;;;;5027134;28;20037;-70
2023/03/30 11:02:32;;;;;;;12.30;2.75;;;15.20;99.90;;;;;;5018408;28;20400;-71
2023/03/30 11:05:12;;;;;;;15.68;4.00;;;15.00;99.90;;;;;;5020925;28;20130;-69
2023/03/30 11:08:03;;;;;;;14.20;2.35;;;14.90;99.90;;;;;;5023367;28;20053;-70
2023/03/30 11:10:37;;;;;;;11.52;2.42;;;14.90;99.90;;;;;;5021947;28;20715;-69
2023/03/30 11:13:21;;;;;;;15.18;2.60;;;15.00;99.90;;;;;;5024767;28;20040;-69
2023/03/30 11:15:49;;;;;;;13.90;3.00;;;15.20;99.90;;;;;;5023111;28;20049;-70
2023/03/30 11:18:28;;;;;;;16.55;3.05;;;15.50;99.90;;;;;;5040954;28;20041;-69
2023/03/30 11:21:15;;;;;;;19.23;3.33;;;15.50;99.90;;;;;;5028970;28;20142;-70
2023/03/30 11:23:46;;;;;;;18.15;3.17;;;15.60;99.90;;;;;;5043828;28;20045;-70
2023/03/30 11:26:34;;;;;;;17.23;3.70;;;16.00;99.90;;;;;;5018446;28;20045;-70
2023/03/30 11:29:18;;;;;;;19.17;4.20;;;16.40;99.90;;;;;;5027614;28;20037;-69
2023/03/30 11:31:50;;;;;;;16.38;3.50;;;16.50;99.90;;;;;;5024322;28;20037;-70
2023/03/30 11:34:50;;;;;;;15.90;2.92;;;16.40;99.90;;;;;;5041341;28;20562;-69
2023/03/30 11:37:56;;;;;;;12.32;3.25;;;16.40;99.90;;;;;;5038905;28;20037;-69
2023/03/30 11:40:27;;;;;;;13.15;3.10;;;16.90;99.90;;;;;;5025370;28;20064;-69
2023/03/30 11:42:54;;;;;;;16.25;3.63;;;17.20;99.90;;;;;;5040478;28;20076;-69
2023/03/30 11:45:42;;;;;;;16.55;3.40;;;17.30;99.90;;;;;;5043396;28;20139;-70
2023/03/30 11:48:37;;;;;;;14.63;3.40;;;17.30;99.90;;;;;;5039394;28;20033;-68
2023/03/30 11:51:25;;;;;;;12.63;3.00;;;17.30;99.90;;;;;;5023793;28;20128;-68
2023/03/30 11:53:56;;;;;;;15.45;3.00;;;17.20;99.90;;;;;;5031518;28;20028;-69
2023/03/30 11:56:45;;;;;;;17.17;3.25;;;17.20;99.90;;;;;;5022169;28;20044;-69
2023/03/30 11:59:26;;;;;;;16.65;3.60;;;17.30;99.90;;;;;;5019219;28;20047;-69
2023/03/30 12:01:51;;;;;;;15.10;3.78;;;17.50;99.90;;;;;;5038195;28;20049;-69
2023/03/30 12:04:31;;;;;;;14.43;3.20;;;17.90;99.90;;;;;;5020048;28;20114;-69
2023/03/30 12:07:03;;;;;;;19.00;3.90;;;17.90;99.90;;;;;;5034239;28;20046;-69
2023/03/30 12:09:43;;;;;;;18.35;4.32;;;17.80;99.90;;;;;;5041707;28;20423;-69
2023/03/30 12:12:16;;;;;;;17.33;3.70;;;17.60;99.90;;;;;;5023180;28;20055;-69
2023/03/30 12:14:52;;;;;;;16.92;4.28;;;17.30;99.90;;;;;;5025677;28;20416;-69
2023/03/30 12:17:42;;;;;;;16.13;3.67;;;17.00;99.90;;;;;;5033408;28;20038;-69
2023/03/30 12:20:30;;;;;;;18.85;4.15;;;16.60;99.90;;;;;;5020603;28;20038;-70
2023/03/30 12:23:28;;;;;;;15.50;3.65;;;16.40;99.90;;;;;;5020600;28;20045;-70
2023/03/30 12:26:23;;;;;;;14.07;3.38;;;16.60;99.90;;;;;;5037564;28;20520;-70
2023/03/30 12:29:09;;;;;;;17.60;3.55;;;16.70;99.90;;;;;;5017884;28;20046;-70
2023/03/30 12:31:50;;;;;;;19.50;3.47;;;17.10;99.90;;;;;;5042538;28;20048;-70
2023/03/30 12:34:16;;;;;;;19.23;3.00;;;17.30;99.90;;;;;;5025207;28;20084;-70
2023/03/30 12:36:47;;;;;;;19.10;3.72;;;17.40;99.90;;;;;;5018559;28;20045;-70
2023/03/30 12:39:30;;;;;;;21.38;3.60;;;17.30;99.90;;;;;;5021561;28;20045;-70
2023/03/30 12:42:04;;;;;;;14.45;3.60;;;17.00;99.90;;;;;;5030083;28;20484;-70
2023/03/30 12:44:42;;;;;;;15.52;3.83;;;16.70;99.90;;;;;;5020292;28;20132;-70
2023/03/30 12:47:17;;;;;;;16.65;4.10;;;16.70;99.90;;;;;;5020177;28;20060;-71
2023/03/30 12:50:26;;;;;;;17.48;4.00;;;16.90;99.90;;;;;;5037048;28;20037;-70
2023/03/30 12:53:07;;;;;;;20.15;4.07;;;17.80;99.90;;;;;;5019259;28;20080;-71
2023/03/30 12:55:51;;;;;;;17.42;3.75;;;18.10;99.90;;;;;;5006671;28;20059;-71
2023/03/30 12:58:45;;;;;;;14.18;3.45;;;18.00;99.90;;;;;;5025596;28;20049;-70
2023/03/30 13:01:33;;;;;;;18.85;4.10;;;18.40;99.90;;;;;;5025661;28;20044;-70
2023/03/30 13:04:12;;;;;;;17.20;3.83;;;18.90;99.90;;;;;;5021992;28;20107;-70
2023/03/30 13:06:46;;;;;;;15.55;3.72;;;19.10;99.90;;;;;;5025499;28;20052;-71
2023/03/30 13:09:18;;;;;;;21.27;4.20;;;19.30;99.90;;;;;;5023646;28;20053;-71